Time;durP1;ratioP1;P1;durP2;ratioP2;P2;SDS_P1;SDS_P2;PMS_P1;PMS_P2;Temp;Humidity;BMP_temperature;BMP_pressure;BME280_temperature;BME280_humidity;BME280_pressure;Samples;Min_cycle;Max_cycle;Signal;HPM_P1;HPM_P2
2020/12/24 00:04:24;;;;;;;46.45;27.77;;;;;;;;;;10401806;28;20067;-60
2020/12/24 00:09:21;;;;;;;55.47;32.28;;;;;;;;;;10401167;28;20083;-60
2020/12/24 00:14:19;;;;;;;91.82;53.90;;;;;;;;;;10412685;27;20075;-61
2020/12/24 00:19:17;;;;;;;93.03;60.22;;;;;;;;;;10401364;28;20075;-59
2020/12/24 00:24:15;;;;;;;84.03;55.10;;;;;;;;;;10400379;28;20079;-60
2020/12/24 00:29:13;;;;;;;41.25;27.88;;;;;;;;;;10399872;28;20079;-60
2020/12/24 00:34:11;;;;;;;19.70;14.70;;;;;;;;;;10399943;28;20071;-61
2020/12/24 00:39:08;;;;;;;23.85;17.35;;;;;;;;;;10400289;28;20079;-60
2020/12/24 00:44:05;;;;;;;19.52;15.35;;;;;;;;;;10411471;27;20081;-61
2020/12/24 00:49:03;;;;;;;14.43;12.02;;;;;;;;;;10399598;28;20074;-61
2020/12/24 00:54:01;;;;;;;21.20;15.45;;;;;;;;;;10413703;27;20093;-61
2020/12/24 00:58:59;;;;;;;20.50;15.40;;;;;;;;;;10382313;28;20431;-62
2020/12/24 01:03:56;;;;;;;16.98;13.50;;;;;;;;;;10405603;27;20075;-62
2020/12/24 01:08:53;;;;;;;17.90;14.45;;;;;;;;;;10412415;27;20059;-61
2020/12/24 01:13:52;;;;;;;17.13;12.57;;;;;;;;;;10416799;27;20078;-61
2020/12/24 01:18:49;;;;;;;18.90;12.80;;;;;;;;;;10429968;27;20086;-62
2020/12/24 01:23:46;;;;;;;19.75;13.52;;;;;;;;;;10416817;27;20067;-62
2020/12/24 01:28:43;;;;;;;20.02;12.60;;;;;;;;;;10427038;27;20043;-62
2020/12/24 01:33:42;;;;;;;18.58;14.35;;;;;;;;;;10403613;27;20464;-63
2020/12/24 01:38:39;;;;;;;24.05;14.27;;;;;;;;;;10427299;27;20082;-62
2020/12/24 01:43:37;;;;;;;21.17;13.77;;;;;;;;;;10426976;27;20055;-63
2020/12/24 01:48:34;;;;;;;17.90;13.30;;;;;;;;;;10434758;27;20415;-62
2020/12/24 01:53:32;;;;;;;24.27;13.75;;;;;;;;;;10400819;27;20093;-62
2020/12/24 01:58:30;;;;;;;20.02;13.43;;;;;;;;;;10431457;27;20078;-60
2020/12/24 02:03:27;;;;;;;17.00;11.55;;;;;;;;;;10431655;27;20043;-61
2020/12/24 02:08:24;;;;;;;23.45;14.80;;;;;;;;;;10423134;27;20066;-62
2020/12/24 02:13:22;;;;;;;20.67;13.20;;;;;;;;;;10433313;27;20082;-63
2020/12/24 02:18:20;;;;;;;20.58;15.13;;;;;;;;;;10408406;27;20419;-62
2020/12/24 02:23:19;;;;;;;23.45;16.08;;;;;;;;;;10419698;27;20039;-61
2020/12/24 02:28:16;;;;;;;24.88;14.70;;;;;;;;;;10420366;28;20072;-62
2020/12/24 02:33:13;;;;;;;20.83;14.55;;;;;;;;;;10435548;28;20078;-65
2020/12/24 02:38:11;;;;;;;33.35;18.23;;;;;;;;;;10414327;28;20044;-62
2020/12/24 02:43:09;;;;;;;18.80;12.88;;;;;;;;;;10428833;28;20079;-62
2020/12/24 02:48:06;;;;;;;19.08;11.40;;;;;;;;;;10431901;28;20043;-62
2020/12/24 02:53:04;;;;;;;18.70;12.32;;;;;;;;;;10404818;27;20457;-62
2020/12/24 02:58:02;;;;;;;20.92;13.00;;;;;;;;;;10436829;27;20043;-62
2020/12/24 03:03:00;;;;;;;17.92;13.50;;;;;;;;;;10409549;27;20059;-62
2020/12/24 03:07:57;;;;;;;23.75;14.45;;;;;;;;;;10422975;27;20043;-63
2020/12/24 03:12:55;;;;;;;19.98;13.02;;;;;;;;;;10446975;27;20074;-61
2020/12/24 03:17:52;;;;;;;22.83;13.75;;;;;;;;;;10443225;27;20074;-61
2020/12/24 03:22:50;;;;;;;18.42;12.73;;;;;;;;;;10405300;27;20070;-60
2020/12/24 03:27:48;;;;;;;17.73;12.55;;;;;;;;;;10435505;27;20046;-61
2020/12/24 03:32:45;;;;;;;16.92;12.18;;;;;;;;;;10447147;27;20043;-61
2020/12/24 03:37:42;;;;;;;12.88;9.57;;;;;;;;;;10411757;27;20487;-62
2020/12/24 03:42:40;;;;;;;11.43;9.70;;;;;;;;;;10403332;28;20052;-61
2020/12/24 03:47:38;;;;;;;14.38;10.50;;;;;;;;;;10403015;28;20066;-61
2020/12/24 03:52:35;;;;;;;12.95;10.10;;;;;;;;;;10403243;28;20051;-62
2020/12/24 03:57:33;;;;;;;16.20;11.00;;;;;;;;;;10403055;28;20075;-62
2020/12/24 04:02:31;;;;;;;19.08;12.55;;;;;;;;;;10403202;28;20341;-62
2020/12/24 04:07:28;;;;;;;14.32;9.57;;;;;;;;;;10402740;28;20418;-62
2020/12/24 04:12:25;;;;;;;14.68;9.23;;;;;;;;;;10403202;28;20074;-62
2020/12/24 04:17:23;;;;;;;11.23;9.00;;;;;;;;;;10384452;28;20289;-62
2020/12/24 04:22:21;;;;;;;13.77;10.20;;;;;;;;;;10402095;28;20090;-62
2020/12/24 04:27:18;;;;;;;11.65;8.32;;;;;;;;;;10402620;28;20074;-62
2020/12/24 04:32:16;;;;;;;11.30;8.55;;;;;;;;;;10402472;28;20390;-62
2020/12/24 04:37:13;;;;;;;10.43;8.10;;;;;;;;;;10402177;28;20075;-62
2020/12/24 04:42:12;;;;;;;12.65;8.68;;;;;;;;;;10401870;28;20050;-63
2020/12/24 04:47:09;;;;;;;10.52;8.73;;;;;;;;;;10400538;28;20086;-60
2020/12/24 04:52:07;;;;;;;10.73;8.52;;;;;;;;;;10401324;28;20044;-62
2020/12/24 04:57:06;;;;;;;8.85;7.68;;;;;;;;;;10401165;28;20453;-63
2020/12/24 05:02:05;;;;;;;11.55;8.10;;;;;;;;;;10400463;28;20039;-63
2020/12/24 05:07:04;;;;;;;9.45;7.78;;;;;;;;;;10399132;28;20050;-63
2020/12/24 05:12:02;;;;;;;11.63;8.23;;;;;;;;;;10400760;28;20044;-63
2020/12/24 05:17:00;;;;;;;9.52;7.93;;;;;;;;;;10400200;28;20089;-63
2020/12/24 05:22:09;;;;;;;13.80;8.15;;;;;;;;;;10400190;28;20527;-62
2020/12/24 05:27:08;;;;;;;11.25;7.90;;;;;;;;;;10398819;28;20071;-61
2020/12/24 05:32:06;;;;;;;11.43;7.78;;;;;;;;;;10396597;28;20101;-62
2020/12/24 05:37:11;;;;;;;11.75;8.05;;;;;;;;;;10397599;28;20113;-62
2020/12/24 05:42:08;;;;;;;10.13;8.13;;;;;;;;;;10393606;28;20082;-62
2020/12/24 05:47:06;;;;;;;10.55;8.82;;;;;;;;;;10393446;28;20082;-62
2020/12/24 05:52:06;;;;;;;9.95;7.93;;;;;;;;;;10393273;28;20464;-62
2020/12/24 05:57:10;;;;;;;9.45;7.72;;;;;;;;;;10378570;28;20075;-62
2020/12/24 06:02:09;;;;;;;13.38;10.90;;;;;;;;;;10397090;28;20044;-63
2020/12/24 06:07:07;;;;;;;14.68;11.23;;;;;;;;;;10397065;28;20078;-62
2020/12/24 06:12:16;;;;;;;16.08;11.80;;;;;;;;;;10396984;28;20082;-63
2020/12/24 06:17:14;;;;;;;8.57;7.22;;;;;;;;;;10396221;28;20090;-63
2020/12/24 06:22:12;;;;;;;12.10;8.27;;;;;;;;;;10396772;28;20067;-63
2020/12/24 06:27:16;;;;;;;9.82;8.35;;;;;;;;;;10396363;28;20062;-63
2020/12/24 06:32:13;;;;;;;11.27;9.18;;;;;;;;;;10396258;28;20420;-61
2020/12/24 06:37:11;;;;;;;59.70;31.60;;;;;;;;;;10396347;28;20083;-61
2020/12/24 06:42:27;;;;;;;17.30;15.48;;;;;;;;;;10396111;28;20071;-61
2020/12/24 06:47:25;;;;;;;11.27;9.95;;;;;;;;;;10395462;28;20055;-62
2020/12/24 06:52:27;;;;;;;13.52;12.02;;;;;;;;;;10395776;28;20098;-62
2020/12/24 06:57:24;;;;;;;19.60;14.93;;;;;;;;;;10395922;28;20078;-63
2020/12/24 07:02:25;;;;;;;21.95;15.68;;;;;;;;;;10396297;28;20084;-63
2020/12/24 07:07:41;;;;;;;25.38;20.30;;;;;;;;;;10394791;28;20420;-63
2020/12/24 07:12:38;;;;;;;;;;;;;;;;;;10396506;28;20082;-63
2020/12/24 07:17:37;;;;;;;12.13;9.93;;;;;;;;;;10395074;28;19966;-62
2020/12/24 07:22:34;;;;;;;11.02;9.40;;;;;;;;;;10395789;28;20031;-61
2020/12/24 07:27:31;;;;;;;11.30;9.55;;;;;;;;;;10395162;28;20047;-62
2020/12/24 07:32:29;;;;;;;14.52;12.88;;;;;;;;;;10395423;28;20381;-62
2020/12/24 07:37:27;;;;;;;16.48;13.57;;;;;;;;;;10395312;28;20071;-62
2020/12/24 07:42:25;;;;;;;17.83;13.43;;;;;;;;;;10398150;28;20051;-62
2020/12/24 07:47:24;;;;;;;20.20;14.27;;;;;;;;;;10401509;28;20044;-61
2020/12/24 07:52:21;;;;;;;82.68;42.72;;;;;;;;;;10401909;28;20047;-62
2020/12/24 07:57:22;;;;;;;23.42;16.33;;;;;;;;;;10401271;28;20079;-62
2020/12/24 08:02:20;;;;;;;22.80;18.25;;;;;;;;;;10402098;28;20408;-63
2020/12/24 08:07:17;;;;;;;20.10;16.40;;;;;;;;;;10401789;28;20063;-62
2020/12/24 08:12:20;;;;;;;23.35;16.73;;;;;;;;;;10382599;28;20050;-61
2020/12/24 08:17:30;;;;;;;39.92;22.10;;;;;;;;;;10401254;28;20546;-62
2020/12/24 08:22:32;;;;;;;38.70;23.35;;;;;;;;;;10401313;28;20050;-60
2020/12/24 08:27:30;;;;;;;35.63;25.10;;;;;;;;;;10401096;28;20035;-62
2020/12/24 08:32:28;;;;;;;37.83;27.60;;;;;;;;;;10400673;28;20085;-60
2020/12/24 08:37:26;;;;;;;40.05;30.13;;;;;;;;;;10399649;28;20086;-61
2020/12/24 08:42:24;;;;;;;51.53;34.40;;;;;;;;;;10400353;28;20048;-61
2020/12/24 08:47:21;;;;;;;41.65;31.85;;;;;;;;;;10400300;28;20047;-61
2020/12/24 08:52:21;;;;;;;42.17;33.17;;;;;;;;;;10399831;28;20039;-62
2020/12/24 08:57:19;;;;;;;44.13;33.53;;;;;;;;;;10399350;28;20435;-62
2020/12/24 09:02:23;;;;;;;44.00;32.75;;;;;;;;;;10399946;28;20036;-62
2020/12/24 09:07:26;;;;;;;28.70;23.38;;;;;;;;;;10399408;28;20059;-62
2020/12/24 09:12:26;;;;;;;49.08;38.13;;;;;;;;;;10399385;28;20044;-61
2020/12/24 09:17:23;;;;;;;23.98;19.85;;;;;;;;;;10398267;28;20102;-62
2020/12/24 09:22:21;;;;;;;24.48;19.00;;;;;;;;;;10398448;28;20394;-62
2020/12/24 09:27:19;;;;;;;29.38;18.98;;;;;;;;;;10398381;28;20515;-61
2020/12/24 09:32:16;;;;;;;26.35;17.33;;;;;;;;;;10398481;28;20070;-62
2020/12/24 09:37:14;;;;;;;24.80;16.45;;;;;;;;;;10379293;28;20071;-61
2020/12/24 09:42:11;;;;;;;22.73;17.85;;;;;;;;;;10397365;28;20075;-62
2020/12/24 09:47:09;;;;;;;18.50;15.30;;;;;;;;;;10397636;28;20047;-61
2020/12/24 09:52:07;;;;;;;28.10;20.05;;;;;;;;;;10396424;28;20051;-61
2020/12/24 09:57:04;;;;;;;36.83;24.70;;;;;;;;;;10396358;28;20086;-62
2020/12/24 10:02:02;;;;;;;52.88;34.22;;;;;;;;;;10395617;28;20079;-60
2020/12/24 10:07:00;;;;;;;50.50;33.38;;;;;;;;;;10395795;28;20563;-61
2020/12/24 10:11:58;;;;;;;30.55;22.20;;;;;;;;;;10396877;28;20527;-62
2020/12/24 10:16:55;;;;;;;29.20;21.75;;;;;;;;;;10397029;28;20500;-63
2020/12/24 10:21:52;;;;;;;27.77;22.02;;;;;;;;;;10396975;28;20508;-62
2020/12/24 10:26:53;;;;;;;92.82;67.00;;;;;;;;;;10396746;28;20040;-61
2020/12/24 10:31:51;;;;;;;32.72;25.25;;;;;;;;;;10396735;28;20142;-62
2020/12/24 10:36:48;;;;;;;101.18;55.03;;;;;;;;;;10396115;28;20075;-61
2020/12/24 10:41:48;;;;;;;62.55;39.10;;;;;;;;;;10396121;28;20040;-62
2020/12/24 10:46:46;;;;;;;82.35;57.28;;;;;;;;;;10395780;28;20055;-61
2020/12/24 10:51:44;;;;;;;120.40;68.82;;;;;;;;;;10395674;28;20047;-61
2020/12/24 10:56:44;;;;;;;74.70;47.00;;;;;;;;;;10395290;28;20098;-62
2020/12/24 11:01:44;;;;;;;108.93;66.32;;;;;;;;;;10395364;28;20079;-62
2020/12/24 11:06:45;;;;;;;60.28;36.30;;;;;;;;;;10395349;28;20071;-62
2020/12/24 11:11:43;;;;;;;26.77;18.13;;;;;;;;;;10395504;28;20052;-62
2020/12/24 11:16:41;;;;;;;35.00;22.40;;;;;;;;;;10400006;28;20395;-61
2020/12/24 11:21:38;;;;;;;32.08;21.27;;;;;;;;;;10403417;28;20071;-61
2020/12/24 11:26:37;;;;;;;27.92;19.45;;;;;;;;;;10403119;28;20413;-61
2020/12/24 11:31:35;;;;;;;40.75;26.75;;;;;;;;;;10402524;28;20070;-62
2020/12/24 11:36:33;;;;;;;58.20;35.25;;;;;;;;;;10403401;28;20083;-62
2020/12/24 11:41:30;;;;;;;38.17;28.15;;;;;;;;;;10403768;28;20508;-60
2020/12/24 11:46:28;;;;;;;47.53;33.67;;;;;;;;;;10402357;28;20067;-61
2020/12/24 11:51:26;;;;;;;44.30;29.23;;;;;;;;;;10469300;27;20042;-62
2020/12/24 11:56:23;;;;;;;86.20;56.63;;;;;;;;;;10486782;27;20085;-62
2020/12/24 12:01:22;;;;;;;39.95;29.90;;;;;;;;;;10487071;27;20451;-61
2020/12/24 12:06:20;;;;;;;31.67;21.90;;;;;;;;;;10486979;27;20043;-62
2020/12/24 12:11:18;;;;;;;36.92;25.92;;;;;;;;;;10485708;27;20047;-61
2020/12/24 12:16:21;;;;;;;41.22;32.00;;;;;;;;;;10486220;27;20070;-61
2020/12/24 12:21:18;;;;;;;45.08;33.95;;;;;;;;;;10486164;27;20192;-62
2020/12/24 12:26:17;;;;;;;60.28;46.67;;;;;;;;;;10485263;27;20541;-62
2020/12/24 12:31:21;;;;;;;39.80;29.02;;;;;;;;;;10485062;27;20407;-61
2020/12/24 12:36:19;;;;;;;95.15;72.88;;;;;;;;;;10484429;27;20078;-62
2020/12/24 12:41:18;;;;;;;38.17;28.80;;;;;;;;;;10483146;27;20467;-62
2020/12/24 12:46:19;;;;;;;197.63;115.13;;;;;;;;;;10480605;27;20549;-62
2020/12/24 12:51:16;;;;;;;156.00;93.97;;;;;;;;;;10480819;27;20357;-62
2020/12/24 12:56:14;;;;;;;59.38;39.70;;;;;;;;;;10481193;27;20459;-62
2020/12/24 13:01:15;;;;;;;46.80;32.67;;;;;;;;;;10483166;27;20085;-62
2020/12/24 13:06:16;;;;;;;48.17;37.83;;;;;;;;;;10484350;27;20665;-62
2020/12/24 13:11:13;;;;;;;135.13;70.60;;;;;;;;;;10465272;27;20522;-62
2020/12/24 13:16:11;;;;;;;248.55;160.82;;;;;;;;;;10483534;27;20078;-62
2020/12/24 13:21:09;;;;;;;152.98;89.95;;;;;;;;;;10483083;27;20054;-62
2020/12/24 13:26:06;;;;;;;146.63;84.93;;;;;;;;;;10483407;27;20448;-63
2020/12/24 13:31:03;;;;;;;157.43;86.28;;;;;;;;;;10483186;27;20487;-62
2020/12/24 13:36:01;;;;;;;553.08;257.83;;;;;;;;;;10481142;27;20523;-62
2020/12/24 13:40:59;;;;;;;696.97;338.00;;;;;;;;;;10482696;27;20047;-63
2020/12/24 13:45:57;;;;;;;691.92;330.92;;;;;;;;;;10482377;27;20050;-62
2020/12/24 13:50:55;;;;;;;487.08;224.07;;;;;;;;;;10481651;27;20043;-62
2020/12/24 13:55:52;;;;;;;688.85;346.15;;;;;;;;;;10481396;27;20093;-62
2020/12/24 14:00:50;;;;;;;678.17;338.60;;;;;;;;;;10481030;27;20069;-62
2020/12/24 14:05:47;;;;;;;453.27;238.02;;;;;;;;;;10481181;27;20523;-62
2020/12/24 14:10:45;;;;;;;168.88;80.68;;;;;;;;;;10481884;27;20030;-62
2020/12/24 14:15:42;;;;;;;565.20;285.15;;;;;;;;;;10481413;27;20081;-62
2020/12/24 14:20:40;;;;;;;545.55;295.27;;;;;;;;;;10480066;27;20078;-62
2020/12/24 14:25:39;;;;;;;578.78;310.00;;;;;;;;;;10480168;27;20530;-62
2020/12/24 14:30:37;;;;;;;225.55;123.78;;;;;;;;;;10480725;27;20042;-62
2020/12/24 14:35:34;;;;;;;216.93;118.18;;;;;;;;;;10479968;27;20535;-62
2020/12/24 14:40:32;;;;;;;216.77;143.05;;;;;;;;;;10481112;27;20074;-62
2020/12/24 14:45:30;;;;;;;238.40;142.35;;;;;;;;;;10480506;27;20109;-62
2020/12/24 14:50:27;;;;;;;367.63;204.77;;;;;;;;;;10464079;27;20144;-61
2020/12/24 14:55:24;;;;;;;155.07;96.43;;;;;;;;;;10488688;27;20074;-61
2020/12/24 15:00:22;;;;;;;129.00;85.75;;;;;;;;;;10487239;27;20071;-60
2020/12/24 15:05:20;;;;;;;169.57;125.38;;;;;;;;;;10486869;27;20077;-61
2020/12/24 15:10:17;;;;;;;87.07;69.10;;;;;;;;;;10488030;27;20047;-61
2020/12/24 15:15:14;;;;;;;84.30;72.43;;;;;;;;;;10488254;27;20054;-61
2020/12/24 15:20:13;;;;;;;56.80;43.65;;;;;;;;;;10487624;27;20090;-61
2020/12/24 15:25:10;;;;;;;29.40;20.73;;;;;;;;;;10487963;27;20038;-61
2020/12/24 15:30:07;;;;;;;51.13;29.92;;;;;;;;;;10487080;27;20054;-61
2020/12/24 15:35:05;;;;;;;22.70;15.73;;;;;;;;;;10487707;27;20054;-61
2020/12/24 15:40:03;;;;;;;18.92;14.27;;;;;;;;;;10487052;27;20039;-61
2020/12/24 15:45:01;;;;;;;16.38;12.27;;;;;;;;;;10486604;27;20059;-62
2020/12/24 15:49:58;;;;;;;24.20;16.75;;;;;;;;;;10487287;27;20067;-62
2020/12/24 15:54:56;;;;;;;20.80;14.85;;;;;;;;;;10487009;27;20046;-62
2020/12/24 15:59:54;;;;;;;21.73;17.27;;;;;;;;;;10486355;27;20074;-62
2020/12/24 16:04:51;;;;;;;24.25;16.75;;;;;;;;;;10486997;27;20171;-62
2020/12/24 16:09:49;;;;;;;20.05;16.52;;;;;;;;;;10487762;27;20074;-62
2020/12/24 16:14:46;;;;;;;28.98;21.98;;;;;;;;;;10486939;27;20055;-62
2020/12/24 16:19:44;;;;;;;37.95;26.60;;;;;;;;;;10487430;27;20070;-62
2020/12/24 16:24:42;;;;;;;32.63;23.50;;;;;;;;;;10486496;27;20423;-60
2020/12/24 16:29:39;;;;;;;31.08;21.75;;;;;;;;;;10486695;27;20058;-61
2020/12/24 16:34:36;;;;;;;38.13;25.80;;;;;;;;;;10487266;27;20039;-63
2020/12/24 16:39:34;;;;;;;25.67;18.88;;;;;;;;;;10486970;27;20070;-62
2020/12/24 16:44:34;;;;;;;32.70;20.17;;;;;;;;;;10486092;27;20066;-62
2020/12/24 16:49:31;;;;;;;138.10;103.13;;;;;;;;;;10486398;27;20042;-62
2020/12/24 16:54:29;;;;;;;31.20;22.23;;;;;;;;;;10485408;27;20479;-61
2020/12/24 16:59:27;;;;;;;159.68;91.63;;;;;;;;;;10422061;27;20775;-60
2020/12/24 17:04:25;;;;;;;29.60;19.70;;;;;;;;;;10425484;27;20063;-62
2020/12/24 17:09:22;;;;;;;20.92;14.57;;;;;;;;;;10415436;27;20515;-63
2020/12/24 17:14:19;;;;;;;18.45;12.85;;;;;;;;;;10419559;27;20051;-62
2020/12/24 17:19:17;;;;;;;20.95;14.05;;;;;;;;;;10425265;27;20150;-60
2020/12/24 17:24:15;;;;;;;20.73;13.20;;;;;;;;;;10422187;27;20074;-62
2020/12/24 17:29:13;;;;;;;19.00;12.60;;;;;;;;;;10425339;27;20066;-62
2020/12/24 17:34:10;;;;;;;20.95;13.40;;;;;;;;;;10411217;27;20404;-62
2020/12/24 17:39:09;;;;;;;18.55;10.90;;;;;;;;;;10434533;27;20063;-61
2020/12/24 17:44:07;;;;;;;14.05;10.85;;;;;;;;;;10417216;27;20076;-61
2020/12/24 17:49:04;;;;;;;17.08;9.50;;;;;;;;;;10416574;27;20412;-62
2020/12/24 17:54:01;;;;;;;14.95;10.63;;;;;;;;;;10399979;28;20114;-61
2020/12/24 17:59:00;;;;;;;78.30;45.05;;;;;;;;;;10398878;28;20516;-63
2020/12/24 18:03:57;;;;;;;78.95;43.35;;;;;;;;;;10398728;28;20044;-61
2020/12/24 18:08:54;;;;;;;89.47;47.08;;;;;;;;;;10398487;28;20043;-60
2020/12/24 18:13:52;;;;;;;59.30;33.40;;;;;;;;;;10398201;28;20087;-61
2020/12/24 18:18:50;;;;;;;50.63;30.58;;;;;;;;;;10391404;28;20125;-60
2020/12/24 18:23:48;;;;;;;54.35;32.80;;;;;;;;;;10387766;28;20068;-61
2020/12/24 18:28:45;;;;;;;70.78;41.08;;;;;;;;;;10385343;28;20067;-61
2020/12/24 18:33:43;;;;;;;74.25;39.47;;;;;;;;;;10387857;28;20801;-62
2020/12/24 18:38:41;;;;;;;56.53;33.50;;;;;;;;;;10393312;28;20528;-62
2020/12/24 18:43:39;;;;;;;60.67;35.35;;;;;;;;;;10395325;28;20065;-62
2020/12/24 18:48:36;;;;;;;47.65;27.90;;;;;;;;;;10396606;28;20040;-61
2020/12/24 18:53:33;;;;;;;75.57;42.70;;;;;;;;;;10395718;28;20054;-61
2020/12/24 18:58:33;;;;;;;45.42;28.13;;;;;;;;;;10394676;28;20079;-61
2020/12/24 19:03:31;;;;;;;47.83;30.13;;;;;;;;;;10396341;28;20474;-61
2020/12/24 19:08:28;;;;;;;127.90;65.15;;;;;;;;;;10395723;28;20054;-61
2020/12/24 19:13:25;;;;;;;57.72;32.50;;;;;;;;;;10395674;28;20075;-61
2020/12/24 19:18:23;;;;;;;55.22;31.55;;;;;;;;;;10395853;28;20079;-61
2020/12/24 19:23:21;;;;;;;61.67;35.38;;;;;;;;;;10395914;28;20075;-62
2020/12/24 19:28:18;;;;;;;61.58;37.63;;;;;;;;;;10394399;28;20074;-61
2020/12/24 19:33:15;;;;;;;36.50;24.83;;;;;;;;;;10394785;28;20048;-61
2020/12/24 19:38:14;;;;;;;39.90;26.38;;;;;;;;;;10401510;28;20083;-61
2020/12/24 19:43:11;;;;;;;36.28;24.20;;;;;;;;;;10403470;28;20086;-62
2020/12/24 19:48:08;;;;;;;42.22;28.48;;;;;;;;;;10402646;28;20075;-61
2020/12/24 19:53:07;;;;;;;38.50;26.77;;;;;;;;;;10402324;28;20079;-61
2020/12/24 19:58:09;;;;;;;32.95;22.05;;;;;;;;;;10402237;28;20090;-61
2020/12/24 20:03:24;;;;;;;36.73;25.63;;;;;;;;;;10402327;28;20072;-61
2020/12/24 20:08:22;;;;;;;38.85;24.00;;;;;;;;;;10401720;28;20328;-62
2020/12/24 20:13:20;;;;;;;103.22;64.20;;;;;;;;;;10402689;28;20074;-62
2020/12/24 20:18:17;;;;;;;55.45;35.40;;;;;;;;;;10401416;28;20111;-61
2020/12/24 20:23:14;;;;;;;46.85;29.05;;;;;;;;;;10401271;28;20046;-62
2020/12/24 20:28:12;;;;;;;37.08;22.02;;;;;;;;;;10401533;28;20413;-61
2020/12/24 20:33:10;;;;;;;43.17;25.35;;;;;;;;;;10402419;28;20070;-61
2020/12/24 20:38:08;;;;;;;165.85;72.10;;;;;;;;;;10401791;28;20109;-61
2020/12/24 20:43:05;;;;;;;55.90;34.72;;;;;;;;;;10442029;27;20079;-61
2020/12/24 20:48:02;;;;;;;53.60;32.95;;;;;;;;;;10442780;27;20053;-62
2020/12/24 20:53:03;;;;;;;58.10;34.30;;;;;;;;;;10443872;27;20079;-62
2020/12/24 20:58:00;;;;;;;39.40;25.55;;;;;;;;;;10443292;27;20070;-61
2020/12/24 21:02:58;;;;;;;38.53;25.58;;;;;;;;;;10443225;27;20047;-62
2020/12/24 21:07:55;;;;;;;32.85;21.77;;;;;;;;;;10443967;27;20035;-59
2020/12/24 21:12:53;;;;;;;29.17;18.48;;;;;;;;;;10442494;27;20495;-59
2020/12/24 21:17:50;;;;;;;43.30;26.65;;;;;;;;;;10443144;27;20066;-59
2020/12/24 21:22:48;;;;;;;46.88;25.33;;;;;;;;;;10442723;27;20491;-59
2020/12/24 21:27:46;;;;;;;17.60;12.60;;;;;;;;;;10442105;27;20047;-62
2020/12/24 21:32:44;;;;;;;14.38;10.50;;;;;;;;;;10442716;27;21332;-62
2020/12/24 21:37:43;;;;;;;14.43;9.00;;;;;;;;;;10441809;27;20504;-62
2020/12/24 21:42:40;;;;;;;11.63;9.30;;;;;;;;;;10441366;27;20058;-62
2020/12/24 21:47:38;;;;;;;11.93;10.40;;;;;;;;;;10442367;27;20039;-62
2020/12/24 21:52:36;;;;;;;17.80;11.93;;;;;;;;;;10441987;27;20047;-60
2020/12/24 21:57:33;;;;;;;12.45;9.95;;;;;;;;;;10440716;27;20051;-60
2020/12/24 22:02:31;;;;;;;12.10;9.32;;;;;;;;;;10439853;27;20081;-60
2020/12/24 22:07:29;;;;;;;12.27;8.93;;;;;;;;;;10440366;27;20039;-60
2020/12/24 22:12:28;;;;;;;16.27;10.18;;;;;;;;;;10440057;27;20047;-60
2020/12/24 22:17:25;;;;;;;10.65;8.00;;;;;;;;;;10440582;27;20093;-60
2020/12/24 22:22:22;;;;;;;12.55;8.13;;;;;;;;;;10440247;27;20054;-61
2020/12/24 22:27:21;;;;;;;11.05;7.90;;;;;;;;;;10440531;27;20043;-61
2020/12/24 22:32:19;;;;;;;11.10;8.00;;;;;;;;;;10439798;27;20046;-62
2020/12/24 22:37:17;;;;;;;85.00;33.30;;;;;;;;;;10439810;27;20078;-61
2020/12/24 22:42:18;;;;;;;99.85;45.42;;;;;;;;;;10440062;28;20043;-61
2020/12/24 22:47:16;;;;;;;60.75;37.55;;;;;;;;;;10440551;28;20071;-61
2020/12/24 22:52:14;;;;;;;38.28;21.95;;;;;;;;;;10440209;28;20035;-61
2020/12/24 22:57:11;;;;;;;42.58;23.98;;;;;;;;;;10440410;28;20517;-61
2020/12/24 23:02:08;;;;;;;46.63;25.88;;;;;;;;;;10439413;28;20093;-61
2020/12/24 23:07:06;;;;;;;41.10;24.23;;;;;;;;;;10439482;28;20148;-61
2020/12/24 23:12:04;;;;;;;37.13;22.40;;;;;;;;;;10442797;27;20043;-61
2020/12/24 23:17:01;;;;;;;29.50;17.90;;;;;;;;;;10447336;27;20117;-61
2020/12/24 23:21:59;;;;;;;30.98;18.02;;;;;;;;;;10447279;27;20051;-60
2020/12/24 23:26:57;;;;;;;38.50;20.73;;;;;;;;;;10447398;27;20508;-60
2020/12/24 23:31:55;;;;;;;43.33;23.42;;;;;;;;;;10447189;27;20480;-60
2020/12/24 23:36:54;;;;;;;131.70;63.38;;;;;;;;;;10446358;27;20461;-61
2020/12/24 23:41:52;;;;;;;137.02;69.85;;;;;;;;;;10446888;27;20089;-61
2020/12/24 23:46:49;;;;;;;107.15;58.35;;;;;;;;;;10445781;27;20082;-62
2020/12/24 23:51:47;;;;;;;92.32;45.92;;;;;;;;;;10444984;27;20058;-61
2020/12/24 23:56:45;;;;;;;108.47;56.95;;;;;;;;;;10446473;27;20042;-61
